RAAF Base Amberley
YAMB : rendu visible

Aérodrome :











RETROUVEZ-NOUS SUR...

 
LOGIN :

S'inscrire | Disclaimer

   EN    FR    IT 

 









Légende :    VFR   VFR Marginal   IFR   IFR Intensif   IFR Très Intensif
Visi : 
Plafond : 
>= 8 km
>= 3000ft
5 à 8 km
1000 à 3000 ft
1500m à 5 km
500 à 1000 ft
800 à 1500m
200 à 500 ft
< 800m
< 200 ft
Symboles :   Orages  Brouillard  Fortes neiges  Fortes précipitations  Vent > 20 kt






- Altitude de l'aérodrome : 91 ft


YAMB - RAAF Base Amberley

DERNIER METAR :
  • 021200Z AUTO 29010KT 9999 // NCD 11/01 Q1021

METARs EXPIRÉS :
  • 021130Z AUTO 34005KT 9999 // NCD 11/01 Q1021
  • 021100Z AUTO 29009KT 9999 // NCD 10/00 Q1021
  • 021030Z AUTO 29007KT 9999 // NCD 12/00 Q1020
  • 021000Z 30010KT CAVOK 12/01 Q1020 FM1000 MOD TURB BLW 5000FT
  • 020930Z 33007KT CAVOK 11/00 Q1020 FM0930 MOD TURB BLW 5000FT

TAF TAF YAMB
Valide du 02 à 06h jusqu'au 03 à 00h UTC


020602Z 0206/0300 26015KT CAVOK
FM020900 29010KT CAVOK
FIR YBBB / Océanie



MET'MAP, la Météo Aéronautique d'un coup d'oeil ! - Copyright ORBIFLY Décembre 2007 - Disclaimer

ORBIFLY MET'MAP TEAM :

Programmation & Développement : Alexandra Zaïnal
Sur une idée originale de : Baudouin d'Aumeries
Assistance à la programmation : Marc-Olivier Méhu
Soutien technique & logistique : Manuel Goepfert

Contact : metmap@orbifly.com




SOURCES & CREDITS :

   NOAA       Earth
Advisory